TimeMDT,TemperatureF,Dew PointF,Humidity,Sea Level PressureIn,VisibilityMPH,Wind Direction,Wind SpeedMPH,Gust SpeedMPH,PrecipitationIn,Events,Conditions,WindDirDegrees,DateUTC
12:53 AM,32.0,28.0,85,29.94,6.0,Calm,Calm,-,N/A,,Mostly Cloudy,0,2012-11-01 06:53:00
1:33 AM,32.0,28.4,87,29.83,5.0,WNW,4.6,-,N/A,,Scattered Clouds,290,2012-11-01 07:33:00
1:40 AM,32.0,28.4,87,29.83,5.0,Calm,Calm,-,N/A,,Mostly Cloudy,0,2012-11-01 07:40:00
1:53 AM,32.0,28.9,88,29.92,5.0,Calm,Calm,-,N/A,,Mostly Cloudy,0,2012-11-01 07:53:00
2:11 AM,32.0,30.2,93,29.82,1.8,Calm,Calm,-,N/A,,Overcast,0,2012-11-01 08:11:00
2:15 AM,32.0,30.2,93,29.82,0.5,Calm,Calm,-,N/A,,Overcast,0,2012-11-01 08:15:00
2:53 AM,32.0,30.0,92,29.91,1.0,Calm,Calm,-,N/A,,Mist,0,2012-11-01 08:53:00
2:55 AM,32.0,30.2,93,29.81,0.8,Calm,Calm,-,N/A,,Mist,0,2012-11-01 08:55:00
3:08 AM,32.0,30.2,93,29.81,0.5,Calm,Calm,-,N/A,Fog,Fog,0,2012-11-01 09:08:00
3:16 AM,32.0,30.2,93,29.80,0.2,Calm,Calm,-,N/A,Fog,Fog,0,2012-11-01 09:16:00
3:53 AM,32.0,30.0,92,29.89,0.2,Calm,Calm,-,N/A,Fog,Fog,0,2012-11-01 09:53:00
4:53 AM,33.1,30.0,89,29.89,0.2,NW,3.5,-,N/A,Fog,Fog,320,2012-11-01 10:53:00
5:50 AM,33.8,30.2,87,29.80,0.5,NW,3.5,-,N/A,Fog,Fog,310,2012-11-01 11:50:00
5:53 AM,33.1,30.9,92,29.90,0.5,Calm,Calm,-,N/A,Fog,Fog,0,2012-11-01 11:53:00
6:04 AM,33.8,30.2,87,29.81,0.2,West,4.6,-,N/A,Fog,Fog,280,2012-11-01 12:04:00
6:53 AM,33.1,30.9,92,29.91,0.2,West,3.5,-,N/A,Fog,Fog,260,2012-11-01 12:53:00
7:40 AM,33.8,30.2,87,29.81,0.8,SW,6.9,-,N/A,,Mist,230,2012-11-01 13:40:00
7:53 AM,33.1,32.0,96,29.91,0.8,Calm,Calm,-,N/A,,Overcast,0,2012-11-01 13:53:00
8:08 AM,33.8,30.2,87,29.82,0.8,Calm,Calm,-,N/A,,Mist,0,2012-11-01 14:08:00
8:21 AM,33.8,30.2,87,29.83,1.2,Calm,Calm,-,N/A,,Overcast,0,2012-11-01 14:21:00
8:28 AM,33.8,32.0,93,29.82,6.0,Calm,Calm,-,N/A,,Overcast,0,2012-11-01 14:28:00
8:37 AM,33.8,30.2,87,29.83,7.0,Calm,Calm,-,N/A,,Overcast,0,2012-11-01 14:37:00
8:53 AM,34.0,30.9,89,29.93,9.0,WNW,3.5,-,N/A,,Overcast,290,2012-11-01 14:53:00
9:53 AM,36.0,32.0,86,29.92,10.0,SSE,3.5,-,N/A,,Overcast,150,2012-11-01 15:53:00
10:53 AM,37.0,33.1,86,29.91,10.0,Calm,Calm,-,N/A,,Overcast,0,2012-11-01 16:53:00
11:53 AM,43.0,36.0,76,29.89,10.0,Calm,Calm,-,0.01,,Partly Cloudy,0,2012-11-01 17:53:00
12:53 PM,50.0,36.0,59,29.85,10.0,SW,9.2,-,N/A,,Clear,220,2012-11-01 18:53:00
1:53 PM,53.6,35.6,51,29.78,10.0,WSW,5.8,-,N/A,,Overcast,240,2012-11-01 19:53:00
2:53 PM,57.0,36.0,45,29.81,10.0,SSW,10.4,-,N/A,,Mostly Cloudy,200,2012-11-01 20:53:00
3:53 PM,60.1,33.1,36,29.80,10.0,SSW,11.5,-,N/A,,Mostly Cloudy,210,2012-11-01 21:53:00
4:53 PM,57.9,30.9,36,29.81,10.0,SW,11.5,-,N/A,,Clear,220,2012-11-01 22:53:00
5:53 PM,55.0,33.1,43,29.83,10.0,WNW,25.3,35.7,N/A,,Scattered Clouds,290,2012-11-01 23:53:00
6:08 PM,51.8,35.6,54,29.83,10.0,North,19.6,34.5,N/A,,Partly Cloudy,10,2012-11-02 00:08:00
6:53 PM,46.0,35.1,66,29.91,10.0,North,5.8,-,N/A,,Scattered Clouds,350,2012-11-02 00:53:00
7:53 PM,45.0,35.1,68,29.96,10.0,South,6.9,-,N/A,,Scattered Clouds,190,2012-11-02 01:53:00
8:53 PM,45.0,35.1,68,29.93,10.0,South,4.6,-,N/A,,Partly Cloudy,190,2012-11-02 02:53:00
9:53 PM,43.0,33.1,68,29.94,10.0,West,11.5,-,N/A,,Clear,260,2012-11-02 03:53:00
10:53 PM,43.0,33.1,68,29.96,10.0,WSW,12.7,-,N/A,,Clear,240,2012-11-02 04:53:00
11:53 PM,45.0,33.1,63,29.94,10.0,SW,12.7,-,N/A,,Clear,220,2012-11-02 05:53:00